createdAt,value
2019-06-26T00:00:45.705Z,59.20
2019-06-26T00:01:51.752Z,59.90
2019-06-26T00:02:57.504Z,59.30
2019-06-26T00:04:03.423Z,59.30
2019-06-26T00:05:08.694Z,59.30
2019-06-26T00:06:14.934Z,60.00
2019-06-26T00:07:20.391Z,59.40
2019-06-26T00:08:26.760Z,59.40
2019-06-26T00:09:32.137Z,59.50
2019-06-26T00:10:38.644Z,59.40
2019-06-26T00:11:43.901Z,59.40
2019-06-26T00:12:49.888Z,59.50
2019-06-26T00:13:55.058Z,59.60
2019-06-26T00:15:01.254Z,59.60
2019-06-26T00:16:06.821Z,59.60
2019-06-26T00:17:12.946Z,59.70
2019-06-26T00:18:18.030Z,59.70
2019-06-26T00:19:24.379Z,59.80
2019-06-26T00:20:29.594Z,59.90
2019-06-26T00:21:35.953Z,59.90
2019-06-26T00:22:41.408Z,60.00
2019-06-26T00:23:47.377Z,59.90
2019-06-26T00:24:52.817Z,60.80
2019-06-26T00:25:58.799Z,60.20
2019-06-26T00:27:04.498Z,60.30
2019-06-26T00:28:11.364Z,60.40
2019-06-26T00:29:16.594Z,61.30
2019-06-26T00:30:22.808Z,60.50
2019-06-26T00:31:28.314Z,61.50
2019-06-26T00:32:34.647Z,60.40
2019-06-26T00:33:40.083Z,60.40
2019-06-26T00:34:46.561Z,60.40
2019-06-26T00:35:51.801Z,60.50
2019-06-26T00:36:57.969Z,60.60
2019-06-26T00:38:04.362Z,61.40
2019-06-26T00:39:10.345Z,60.50
2019-06-26T00:40:15.790Z,60.50
2019-06-26T00:41:22.093Z,60.50
2019-06-26T00:42:27.593Z,60.60
2019-06-26T00:43:42.461Z,61.40
2019-06-26T00:44:41.075Z,60.70
2019-06-26T00:45:46.907Z,60.60
2019-06-26T00:46:52.398Z,60.70
2019-06-26T00:47:58.356Z,60.70
2019-06-26T00:49:03.731Z,60.70
2019-06-26T00:50:11.226Z,60.70
2019-06-26T00:51:17.096Z,60.70
2019-06-26T00:52:23.322Z,60.80
2019-06-26T00:53:28.712Z,60.90
2019-06-26T00:54:34.917Z,61.00
2019-06-26T00:55:40.226Z,61.10
2019-06-26T00:56:46.204Z,61.10
2019-06-26T00:57:51.725Z,61.10
2019-06-26T00:58:57.676Z,61.20
2019-06-26T01:00:08.821Z,61.30
2019-06-26T01:01:16.582Z,61.30
2019-06-26T01:02:23.505Z,61.40
2019-06-26T01:03:31.223Z,61.40
2019-06-26T01:04:40.677Z,61.70
2019-06-26T01:05:47.517Z,61.40
2019-06-26T01:06:53.682Z,61.30
2019-06-26T01:08:02.118Z,61.30
2019-06-26T01:09:11.685Z,61.30
2019-06-26T01:10:18.413Z,61.30
2019-06-26T01:11:24.108Z,61.30
2019-06-26T01:12:31.679Z,61.30
2019-06-26T01:13:38.935Z,61.40
2019-06-26T01:14:44.812Z,61.50
2019-06-26T01:15:50.245Z,61.40
2019-06-26T01:16:56.839Z,62.50
2019-06-26T01:18:02.378Z,61.60
2019-06-26T01:19:08.330Z,61.60
2019-06-26T01:20:15.492Z,61.70
2019-06-26T01:21:21.990Z,61.70
2019-06-26T01:22:27.924Z,61.70
2019-06-26T01:23:33.744Z,61.80
2019-06-26T01:24:38.902Z,62.70
2019-06-26T01:25:45.191Z,61.80
2019-06-26T01:26:50.322Z,62.00
2019-06-26T01:27:56.273Z,61.90
2019-06-26T01:29:01.484Z,62.00
2019-06-26T01:30:08.404Z,62.10
2019-06-26T01:31:13.836Z,62.20
2019-06-26T01:32:20.006Z,62.10
2019-06-26T01:33:25.190Z,62.20
2019-06-26T01:34:31.208Z,62.30
2019-06-26T01:35:36.838Z,62.30
2019-06-26T01:36:42.813Z,63.20
2019-06-26T01:37:48.541Z,62.40
2019-06-26T01:38:54.562Z,62.40
2019-06-26T01:40:00.135Z,62.50
2019-06-26T01:41:06.114Z,62.70
2019-06-26T01:42:11.234Z,62.50
2019-06-26T01:43:17.708Z,63.30
2019-06-26T01:44:23.101Z,62.50
2019-06-26T01:45:29.402Z,63.40
2019-06-26T01:46:35.421Z,62.50
2019-06-26T01:47:42.043Z,62.60
2019-06-26T01:48:47.137Z,62.60
2019-06-26T01:49:53.226Z,62.70
2019-06-26T01:50:58.330Z,62.70
2019-06-26T01:52:04.799Z,62.60
2019-06-26T01:53:10.149Z,62.60
2019-06-26T01:54:16.019Z,63.50
2019-06-26T01:55:21.411Z,62.60
2019-06-26T01:56:27.384Z,62.70
2019-06-26T01:57:32.705Z,62.80
2019-06-26T01:58:39.581Z,62.90
2019-06-26T01:59:45.035Z,62.90
2019-06-26T02:00:52.456Z,63.00
2019-06-26T02:01:59.397Z,63.00
2019-06-26T02:03:05.464Z,62.90
2019-06-26T02:04:10.633Z,62.90
2019-06-26T02:05:16.697Z,63.10
2019-06-26T02:06:22.635Z,63.20
2019-06-26T02:07:29.328Z,63.10
2019-06-26T02:08:34.494Z,63.10
2019-06-26T02:09:40.999Z,63.10
2019-06-26T02:10:46.501Z,63.20
2019-06-26T02:11:52.963Z,63.20
2019-06-26T02:12:58.507Z,63.10
2019-06-26T02:14:04.519Z,63.10
2019-06-26T02:15:10.460Z,63.20
2019-06-26T02:16:16.985Z,63.20
2019-06-26T02:17:22.166Z,63.30
2019-06-26T02:18:37.935Z,63.40
2019-06-26T02:19:43.580Z,64.20
2019-06-26T02:20:49.701Z,63.40
2019-06-26T02:21:55.490Z,63.40
2019-06-26T02:23:02.066Z,63.50
2019-06-26T02:24:07.532Z,63.50
2019-06-26T02:25:13.788Z,63.40
2019-06-26T02:26:19.187Z,63.50
2019-06-26T02:27:25.630Z,64.40
2019-06-26T02:28:31.159Z,63.60
2019-06-26T02:29:37.037Z,63.60
2019-06-26T02:30:42.599Z,63.70
2019-06-26T02:31:48.841Z,63.70
2019-06-26T02:32:53.907Z,63.70
2019-06-26T02:34:00.065Z,63.80
2019-06-26T02:35:09.365Z,63.70
2019-06-26T02:36:13.281Z,63.70
2019-06-26T02:37:18.478Z,63.70
2019-06-26T02:38:24.298Z,63.80
2019-06-26T02:39:29.787Z,63.90
2019-06-26T02:40:36.010Z,63.80
2019-06-26T02:41:41.508Z,63.90
2019-06-26T02:42:48.096Z,64.00
2019-06-26T02:43:53.285Z,63.90
2019-06-26T02:44:59.412Z,64.10
2019-06-26T02:46:04.909Z,64.00
2019-06-26T02:47:19.840Z,64.00
2019-06-26T02:48:17.645Z,64.00
2019-06-26T02:49:23.711Z,64.10
2019-06-26T02:50:28.824Z,64.10
2019-06-26T02:51:35.085Z,65.00
2019-06-26T02:52:40.259Z,64.20
2019-06-26T02:53:46.559Z,64.10
2019-06-26T02:54:51.649Z,64.30
2019-06-26T02:55:57.788Z,64.20
2019-06-26T02:57:04.225Z,64.50
2019-06-26T02:58:10.530Z,65.20
2019-06-26T02:59:15.977Z,64.40
2019-06-26T03:00:22.300Z,64.40
2019-06-26T03:01:27.761Z,64.40
2019-06-26T03:02:33.949Z,63.70
2019-06-26T03:03:39.463Z,64.50
2019-06-26T03:04:45.949Z,64.60
2019-06-26T03:05:51.056Z,64.50
2019-06-26T03:06:56.956Z,64.50
2019-06-26T03:08:02.560Z,64.50
2019-06-26T03:09:09.369Z,64.50
2019-06-26T03:10:15.366Z,64.60
2019-06-26T03:11:21.792Z,64.60
2019-06-26T03:12:26.897Z,64.70
2019-06-26T03:13:33.185Z,64.80
2019-06-26T03:14:38.611Z,64.60
2019-06-26T03:15:44.732Z,64.60
2019-06-26T03:16:49.870Z,64.60
2019-06-26T03:17:56.027Z,64.60
2019-06-26T03:19:01.220Z,64.60
2019-06-26T03:20:08.101Z,64.70
2019-06-26T03:21:13.594Z,64.80
2019-06-26T03:22:20.329Z,65.50
2019-06-26T03:23:25.572Z,64.70
2019-06-26T03:24:31.780Z,64.80
2019-06-26T03:25:37.306Z,65.60
2019-06-26T03:26:44.238Z,64.90
2019-06-26T03:27:49.558Z,65.70
2019-06-26T03:28:55.390Z,64.80
2019-06-26T03:30:00.427Z,64.80
2019-06-26T03:31:07.457Z,65.00
2019-06-26T03:32:14.822Z,65.00
2019-06-26T03:33:23.165Z,65.00
2019-06-26T03:34:28.977Z,65.10
2019-06-26T03:35:35.960Z,65.10
2019-06-26T03:36:41.241Z,65.30
2019-06-26T03:37:48.050Z,65.20
2019-06-26T03:38:53.743Z,65.20
2019-06-26T03:40:00.405Z,65.30
2019-06-26T03:41:05.814Z,65.30
2019-06-26T03:42:12.049Z,65.20
2019-06-26T03:43:17.588Z,65.20
2019-06-26T03:44:23.783Z,66.00
2019-06-26T03:45:29.247Z,65.40
2019-06-26T03:46:35.548Z,65.30
2019-06-26T03:47:40.929Z,65.30
2019-06-26T03:48:46.759Z,65.40
2019-06-26T03:49:52.031Z,65.30
2019-06-26T03:50:58.014Z,65.30
2019-06-26T03:52:03.116Z,65.40
2019-06-26T03:53:09.500Z,65.40
2019-06-26T03:54:14.618Z,65.50
2019-06-26T03:55:20.640Z,65.50
2019-06-26T03:56:25.972Z,65.50
2019-06-26T03:57:35.351Z,65.50
2019-06-26T03:58:39.444Z,65.60
2019-06-26T03:59:45.719Z,65.60
2019-06-26T04:00:50.885Z,66.40
2019-06-26T04:01:57.329Z,66.40
2019-06-26T04:03:03.007Z,65.70
2019-06-26T04:04:09.437Z,66.50
2019-06-26T04:05:14.907Z,66.50
2019-06-26T04:06:21.339Z,65.70
2019-06-26T04:07:26.756Z,65.80
2019-06-26T04:08:32.914Z,65.90
2019-06-26T04:09:37.961Z,66.80
2019-06-26T04:10:43.913Z,66.00
2019-06-26T04:11:49.429Z,66.10
2019-06-26T04:12:56.094Z,66.20
2019-06-26T04:14:01.126Z,66.30
2019-06-26T04:15:07.790Z,66.30
2019-06-26T04:16:13.802Z,66.30
2019-06-26T04:17:19.719Z,66.30
2019-06-26T04:18:25.365Z,66.30
2019-06-26T04:19:31.534Z,66.30
2019-06-26T04:20:36.647Z,66.30
2019-06-26T04:21:42.584Z,66.30
2019-06-26T04:22:47.923Z,66.30
2019-06-26T04:23:54.350Z,66.50
2019-06-26T04:24:59.451Z,66.60
2019-06-26T04:26:05.861Z,66.70
2019-06-26T04:27:11.604Z,66.80
2019-06-26T04:28:17.607Z,66.90
2019-06-26T04:29:23.150Z,66.90
2019-06-26T04:30:29.333Z,67.00
2019-06-26T04:31:34.751Z,67.00
2019-06-26T04:32:40.714Z,67.80
2019-06-26T04:33:45.681Z,67.80
2019-06-26T04:34:54.505Z,67.10
2019-06-26T04:35:58.883Z,67.20
2019-06-26T04:37:04.778Z,67.10
2019-06-26T04:38:09.983Z,67.10
2019-06-26T04:39:16.240Z,67.20
2019-06-26T04:40:21.648Z,67.20
2019-06-26T04:41:28.207Z,67.30
2019-06-26T04:42:34.066Z,67.40
2019-06-26T04:43:40.583Z,67.40
2019-06-26T04:44:45.619Z,67.60
2019-06-26T04:45:58.219Z,67.60
2019-06-26T04:46:58.842Z,67.60
2019-06-26T04:48:07.187Z,67.60
2019-06-26T04:49:12.392Z,67.70
2019-06-26T04:50:19.112Z,67.70
2019-06-26T04:51:24.231Z,67.80
2019-06-26T04:52:30.210Z,67.80
2019-06-26T04:53:35.757Z,67.80
2019-06-26T04:54:41.508Z,67.90
2019-06-26T04:55:46.935Z,68.00
2019-06-26T04:56:53.077Z,68.00
2019-06-26T04:57:58.099Z,68.00
2019-06-26T04:59:04.067Z,68.00
2019-06-26T05:00:10.537Z,68.00
2019-06-26T05:01:16.811Z,68.10
2019-06-26T05:02:22.210Z,68.00
2019-06-26T05:03:28.568Z,68.80
2019-06-26T05:04:34.271Z,68.20
2019-06-26T05:05:40.568Z,68.20
2019-06-26T05:06:46.092Z,68.40
2019-06-26T05:07:53.804Z,68.20
2019-06-26T05:08:59.003Z,68.30
2019-06-26T05:10:05.324Z,68.30
2019-06-26T05:11:12.867Z,68.10
2019-06-26T05:12:18.228Z,67.90
2019-06-26T05:13:23.961Z,68.00
2019-06-26T05:14:30.491Z,68.10
2019-06-26T05:15:35.941Z,67.90
2019-06-26T05:16:41.841Z,68.50
2019-06-26T05:17:47.021Z,67.70
2019-06-26T05:18:53.299Z,67.70
2019-06-26T05:19:58.319Z,67.70
2019-06-26T05:21:04.540Z,67.80
2019-06-26T05:22:10.386Z,68.60
2019-06-26T05:23:16.234Z,67.80
2019-06-26T05:24:22.273Z,67.70
2019-06-26T05:25:28.215Z,67.50
2019-06-26T05:26:33.756Z,67.30
2019-06-26T05:27:39.974Z,67.40
2019-06-26T05:28:45.065Z,67.30
2019-06-26T05:29:54.287Z,68.10
2019-06-26T05:30:59.068Z,67.30
2019-06-26T05:32:05.410Z,67.40
2019-06-26T05:33:10.508Z,67.40
2019-06-26T05:34:16.762Z,67.40
2019-06-26T05:35:22.639Z,67.50
2019-06-26T05:36:28.847Z,67.40
2019-06-26T05:37:34.499Z,67.20
2019-06-26T05:38:40.508Z,67.00
2019-06-26T05:39:46.219Z,67.10
2019-06-26T05:40:52.753Z,67.70
2019-06-26T05:41:58.238Z,67.00
2019-06-26T05:43:06.182Z,66.90
2019-06-26T05:44:12.280Z,66.70
2019-06-26T05:45:18.911Z,67.50
2019-06-26T05:46:30.880Z,66.80
2019-06-26T05:47:31.856Z,66.80
2019-06-26T05:48:37.152Z,66.70
2019-06-26T05:49:44.120Z,66.70
2019-06-26T05:50:49.960Z,66.70
2019-06-26T05:51:56.589Z,66.60
2019-06-26T05:53:02.100Z,67.30
2019-06-26T05:54:08.063Z,67.30
2019-06-26T05:55:14.349Z,66.40
2019-06-26T05:56:20.596Z,66.40
2019-06-26T05:57:25.750Z,66.30
2019-06-26T05:58:31.703Z,66.30
2019-06-26T05:59:37.095Z,66.30
2019-06-26T06:00:43.336Z,66.50
2019-06-26T06:01:48.541Z,66.30
2019-06-26T06:02:54.658Z,66.10
2019-06-26T06:04:00.189Z,66.90
2019-06-26T06:05:06.675Z,66.10
2019-06-26T06:06:12.132Z,66.10
2019-06-26T06:07:18.292Z,66.00
2019-06-26T06:08:23.669Z,66.40
2019-06-26T06:09:30.000Z,66.10
2019-06-26T06:10:35.479Z,66.00
2019-06-26T06:11:42.183Z,66.00
2019-06-26T06:12:47.920Z,65.90
2019-06-26T06:13:53.816Z,65.70
2019-06-26T06:14:59.233Z,65.70
2019-06-26T06:16:06.592Z,65.70
2019-06-26T06:17:12.778Z,65.90
2019-06-26T06:18:19.287Z,66.10
2019-06-26T06:19:24.858Z,65.90
2019-06-26T06:20:39.465Z,65.90
2019-06-26T06:21:44.607Z,66.10
2019-06-26T06:22:50.798Z,66.00
2019-06-26T06:23:56.624Z,65.70
2019-06-26T06:25:03.102Z,65.70
2019-06-26T06:26:08.685Z,65.40
2019-06-26T06:27:14.510Z,65.40
2019-06-26T06:28:19.760Z,65.30
2019-06-26T06:29:25.965Z,65.20
2019-06-26T06:30:31.095Z,65.10
2019-06-26T06:31:37.474Z,65.20
2019-06-26T06:32:42.647Z,64.60
2019-06-26T06:33:48.749Z,65.10
2019-06-26T06:34:53.934Z,64.90
2019-06-26T06:35:59.985Z,64.90
2019-06-26T06:37:05.487Z,64.90
2019-06-26T06:38:11.656Z,64.90
2019-06-26T06:39:17.670Z,65.10
2019-06-26T06:40:23.735Z,65.00
2019-06-26T06:41:29.070Z,65.00
2019-06-26T06:42:35.419Z,65.00
2019-06-26T06:43:40.958Z,65.00
2019-06-26T06:44:47.488Z,65.00
2019-06-26T06:45:53.015Z,65.00
2019-06-26T06:47:03.705Z,65.00
2019-06-26T06:48:06.013Z,64.80
2019-06-26T06:49:12.231Z,64.90
2019-06-26T06:50:17.536Z,64.90
2019-06-26T06:51:23.548Z,64.80
2019-06-26T06:52:28.642Z,64.60
2019-06-26T06:53:34.579Z,64.40
2019-06-26T06:54:39.978Z,64.60
2019-06-26T06:55:45.959Z,64.40
2019-06-26T06:56:53.151Z,64.40
2019-06-26T06:57:59.342Z,65.20
2019-06-26T06:59:05.162Z,65.20
2019-06-26T07:00:11.342Z,64.60
2019-06-26T07:01:17.067Z,64.40
2019-06-26T07:02:23.318Z,63.80
2019-06-26T07:03:28.689Z,63.80
2019-06-26T07:04:34.692Z,63.90
2019-06-26T07:05:39.938Z,64.00
2019-06-26T07:06:46.234Z,63.90
2019-06-26T07:07:51.731Z,64.00
2019-06-26T07:08:57.952Z,63.80
2019-06-26T07:10:03.789Z,63.60
2019-06-26T07:11:09.971Z,63.40
2019-06-26T07:12:15.781Z,62.90
2019-06-26T07:13:22.480Z,62.90
2019-06-26T07:14:27.976Z,63.00
2019-06-26T07:15:33.959Z,63.00
2019-06-26T07:16:39.374Z,62.80
2019-06-26T07:17:46.392Z,62.80
2019-06-26T07:18:52.164Z,62.60
2019-06-26T07:19:58.092Z,62.40
2019-06-26T07:21:03.298Z,62.30
2019-06-26T07:22:09.213Z,62.00
2019-06-26T07:23:14.679Z,61.60
2019-06-26T07:24:20.899Z,61.20
2019-06-26T07:25:26.021Z,61.00
2019-06-26T07:26:32.567Z,61.00
2019-06-26T07:27:37.786Z,60.60
2019-06-26T07:28:43.793Z,60.40
2019-06-26T07:29:49.029Z,60.40
2019-06-26T07:30:55.275Z,60.50
2019-06-26T07:32:01.202Z,60.60
2019-06-26T07:33:07.637Z,59.80
2019-06-26T07:34:12.869Z,59.60
2019-06-26T07:35:19.033Z,59.70
2019-06-26T07:36:24.189Z,59.70
2019-06-26T07:37:30.711Z,59.30
2019-06-26T07:38:36.351Z,59.20
2019-06-26T07:39:42.332Z,58.90
2019-06-26T07:40:48.010Z,58.90
2019-06-26T07:41:54.900Z,59.10
2019-06-26T07:43:00.297Z,59.10
2019-06-26T07:44:06.868Z,58.90
2019-06-26T07:45:13.327Z,58.90
2019-06-26T07:46:19.591Z,58.80
2019-06-26T07:47:41.564Z,58.70
2019-06-26T07:48:32.473Z,58.50
2019-06-26T07:49:37.889Z,58.20
2019-06-26T07:50:44.551Z,58.20
2019-06-26T07:51:49.687Z,58.30
2019-06-26T07:52:55.607Z,58.30
2019-06-26T07:54:01.984Z,57.70
2019-06-26T07:55:11.903Z,57.50
2019-06-26T07:56:16.588Z,56.90
2019-06-26T07:57:22.687Z,56.80
2019-06-26T07:58:28.295Z,56.80
2019-06-26T07:59:34.777Z,56.80
2019-06-26T08:00:39.944Z,56.70
2019-06-26T08:01:46.233Z,56.70
2019-06-26T08:02:51.884Z,56.90
2019-06-26T08:03:57.890Z,56.80
2019-06-26T08:05:03.070Z,56.70
2019-06-26T08:06:09.278Z,56.60
2019-06-26T08:07:14.823Z,56.20
2019-06-26T08:08:21.401Z,56.10
2019-06-26T08:09:26.666Z,56.00
2019-06-26T08:10:32.917Z,56.10
2019-06-26T08:11:38.058Z,55.50
2019-06-26T08:12:44.687Z,55.10
2019-06-26T08:13:50.180Z,55.10
2019-06-26T08:14:56.486Z,55.10
2019-06-26T08:16:02.467Z,55.10
2019-06-26T08:17:08.523Z,54.40
2019-06-26T08:18:14.022Z,54.50
2019-06-26T08:19:20.022Z,54.60
2019-06-26T08:20:25.595Z,54.40
2019-06-26T08:21:31.866Z,54.40
2019-06-26T08:22:37.342Z,54.00
2019-06-26T08:23:43.616Z,54.20
2019-06-26T08:24:49.057Z,54.50
2019-06-26T08:25:55.552Z,54.20
2019-06-26T08:27:01.009Z,53.90
2019-06-26T08:28:07.237Z,54.00
2019-06-26T08:29:12.678Z,54.10
2019-06-26T08:30:19.767Z,53.80
2019-06-26T08:31:25.460Z,53.40
2019-06-26T08:32:32.026Z,53.30
2019-06-26T08:33:37.511Z,53.20
2019-06-26T08:34:43.791Z,53.20
2019-06-26T08:35:49.044Z,53.00
2019-06-26T08:36:55.292Z,52.30
2019-06-26T08:38:11.041Z,51.90
2019-06-26T08:39:09.191Z,52.10
2019-06-26T08:40:16.250Z,52.30
2019-06-26T08:41:23.087Z,52.30
2019-06-26T08:42:28.181Z,52.00
2019-06-26T08:43:34.407Z,51.30
2019-06-26T08:44:39.866Z,50.80
2019-06-26T08:45:46.266Z,50.90
2019-06-26T08:46:51.791Z,50.70
2019-06-26T08:47:58.140Z,50.40
2019-06-26T08:49:03.743Z,50.40
2019-06-26T08:50:10.361Z,50.60
2019-06-26T08:51:15.456Z,50.60
2019-06-26T08:52:22.081Z,50.50
2019-06-26T08:53:27.292Z,50.30
2019-06-26T08:54:33.769Z,50.20
2019-06-26T08:55:39.170Z,50.90
2019-06-26T08:56:45.329Z,50.00
2019-06-26T08:57:50.554Z,49.80
2019-06-26T08:58:56.529Z,49.80
2019-06-26T09:00:01.600Z,49.70
2019-06-26T09:01:08.227Z,49.60
2019-06-26T09:02:13.710Z,49.50
2019-06-26T09:03:21.090Z,49.60
2019-06-26T09:04:26.975Z,49.60
2019-06-26T09:05:47.620Z,49.40
2019-06-26T09:06:40.655Z,48.20
2019-06-26T09:07:46.737Z,47.80
2019-06-26T09:08:52.215Z,47.40
2019-06-26T09:09:58.554Z,46.90
2019-06-26T09:11:04.293Z,46.20
2019-06-26T09:12:10.464Z,45.80
2019-06-26T09:13:15.661Z,45.40
2019-06-26T09:14:21.585Z,45.10
2019-06-26T09:15:26.745Z,45.10
2019-06-26T09:16:32.945Z,44.70
2019-06-26T09:17:38.438Z,44.70
2019-06-26T09:18:44.946Z,44.70
2019-06-26T09:19:50.230Z,45.20
2019-06-26T09:20:56.515Z,45.40
2019-06-26T09:22:02.829Z,45.50
2019-06-26T09:23:09.551Z,45.40
2019-06-26T09:24:14.687Z,44.70
2019-06-26T09:25:22.568Z,44.60
2019-06-26T09:26:28.710Z,44.30
2019-06-26T09:27:34.667Z,43.80
2019-06-26T09:28:40.714Z,44.20
2019-06-26T09:29:47.390Z,43.60
2019-06-26T09:30:52.605Z,42.60
2019-06-26T09:31:59.295Z,41.30
2019-06-26T09:33:04.800Z,40.90
2019-06-26T09:34:10.880Z,40.80
2019-06-26T09:35:16.171Z,40.00
2019-06-26T09:36:22.737Z,39.80
2019-06-26T09:37:28.319Z,39.90
2019-06-26T09:38:34.308Z,39.40
2019-06-26T09:39:40.067Z,38.50
2019-06-26T09:40:46.008Z,38.20
2019-06-26T09:41:51.586Z,38.70
2019-06-26T09:42:57.799Z,38.60
2019-06-26T09:44:04.021Z,38.30
2019-06-26T09:45:10.411Z,38.40
2019-06-26T09:46:15.640Z,38.80
2019-06-26T09:47:21.939Z,39.60
2019-06-26T09:48:27.065Z,39.40
2019-06-26T09:49:33.027Z,38.70
2019-06-26T09:50:38.559Z,38.40
2019-06-26T09:51:45.289Z,38.00
2019-06-26T09:52:51.166Z,38.10
2019-06-26T09:53:57.776Z,38.30
2019-06-26T09:55:02.821Z,38.10
2019-06-26T09:56:09.192Z,38.10
2019-06-26T09:57:14.617Z,38.20
2019-06-26T09:58:20.874Z,38.20
2019-06-26T09:59:26.577Z,38.40
2019-06-26T10:00:32.773Z,38.80
2019-06-26T10:01:38.298Z,38.40
2019-06-26T10:02:44.586Z,38.50
2019-06-26T10:03:49.781Z,38.50
2019-06-26T10:04:55.819Z,37.80
2019-06-26T10:06:01.792Z,37.80
2019-06-26T10:07:07.841Z,37.90
2019-06-26T10:08:14.002Z,37.70
2019-06-26T10:09:20.023Z,37.40
2019-06-26T10:10:25.546Z,37.20
2019-06-26T10:11:31.848Z,37.60
2019-06-26T10:12:37.221Z,37.00
2019-06-26T10:13:43.521Z,37.10
2019-06-26T10:14:49.104Z,36.70
2019-06-26T10:15:55.669Z,37.20
2019-06-26T10:17:01.037Z,36.80
2019-06-26T10:18:07.031Z,37.30
2019-06-26T10:19:12.629Z,37.10
2019-06-26T10:20:20.169Z,36.70
2019-06-26T10:21:25.642Z,36.80
2019-06-26T10:22:31.860Z,36.70
2019-06-26T10:23:37.010Z,36.20
2019-06-26T10:24:43.151Z,36.20
2019-06-26T10:25:48.494Z,36.30
2019-06-26T10:26:54.489Z,36.50
2019-06-26T10:28:00.068Z,36.40
2019-06-26T10:29:06.136Z,35.70
2019-06-26T10:30:12.807Z,35.00
2019-06-26T10:31:18.779Z,34.80
2019-06-26T10:32:24.158Z,35.20
2019-06-26T10:33:30.422Z,34.60
2019-06-26T10:34:35.874Z,33.80
2019-06-26T10:35:41.954Z,33.00
2019-06-26T10:36:47.219Z,31.60
2019-06-26T10:37:53.539Z,31.00
2019-06-26T10:38:58.595Z,31.00
2019-06-26T10:40:06.508Z,31.50
2019-06-26T10:41:11.698Z,31.70
2019-06-26T10:42:17.764Z,31.50
2019-06-26T10:43:23.131Z,31.00
2019-06-26T10:44:29.416Z,31.00
2019-06-26T10:45:36.379Z,31.40
2019-06-26T10:46:43.032Z,30.70
2019-06-26T10:47:48.093Z,30.50
2019-06-26T10:48:54.308Z,31.00
2019-06-26T10:50:00.188Z,30.80
2019-06-26T10:51:06.174Z,31.00
2019-06-26T10:52:11.312Z,31.20
2019-06-26T10:53:17.267Z,31.00
2019-06-26T10:54:22.628Z,31.50
2019-06-26T10:55:28.546Z,31.30
2019-06-26T10:56:34.032Z,30.70
2019-06-26T10:57:40.240Z,30.00
2019-06-26T10:58:46.037Z,30.10
2019-06-26T10:59:55.541Z,30.50
2019-06-26T11:00:59.149Z,31.80
2019-06-26T11:02:05.454Z,32.10
2019-06-26T11:03:12.888Z,31.60
2019-06-26T11:04:19.525Z,31.30
2019-06-26T11:05:26.323Z,31.80
2019-06-26T11:06:36.906Z,31.40
2019-06-26T11:07:41.203Z,31.80
2019-06-26T11:08:47.398Z,31.80
2019-06-26T11:09:54.267Z,32.00
2019-06-26T11:11:01.143Z,32.10
2019-06-26T11:12:06.681Z,32.10
2019-06-26T11:13:13.008Z,31.60
2019-06-26T11:14:18.178Z,31.60
2019-06-26T11:15:24.660Z,31.60
2019-06-26T11:16:30.082Z,31.10
2019-06-26T11:17:36.622Z,31.00
2019-06-26T11:18:41.797Z,31.30
2019-06-26T11:19:47.946Z,31.00
2019-06-26T11:20:53.523Z,30.80
2019-06-26T11:21:59.796Z,31.00
2019-06-26T11:23:05.010Z,30.70
2019-06-26T11:24:11.357Z,30.70
2019-06-26T11:25:19.635Z,30.90
2019-06-26T11:26:25.889Z,31.20
2019-06-26T11:27:31.013Z,30.60
2019-06-26T11:28:37.113Z,30.10
2019-06-26T11:29:45.425Z,30.00
2019-06-26T11:30:51.747Z,30.80
2019-06-26T11:31:57.370Z,29.20
2019-06-26T11:33:03.668Z,29.30
2019-06-26T11:34:08.856Z,29.30
2019-06-26T11:35:15.368Z,29.20
2019-06-26T11:36:20.533Z,29.60
2019-06-26T11:37:26.758Z,29.20
2019-06-26T11:38:32.237Z,28.70
2019-06-26T11:39:38.433Z,29.20
2019-06-26T11:40:43.859Z,29.30
2019-06-26T11:41:49.929Z,29.40
2019-06-26T11:42:55.375Z,29.40
2019-06-26T11:44:01.675Z,29.70
2019-06-26T11:45:08.470Z,30.10
2019-06-26T11:46:14.468Z,30.60
2019-06-26T11:47:19.728Z,30.00
2019-06-26T11:48:25.662Z,30.30
2019-06-26T11:49:31.206Z,30.70
2019-06-26T11:50:37.705Z,30.20
2019-06-26T11:51:42.839Z,30.40
2019-06-26T11:52:49.786Z,30.30
2019-06-26T11:53:58.864Z,30.00
2019-06-26T11:55:04.054Z,29.80
2019-06-26T11:56:10.300Z,29.80
2019-06-26T11:57:16.620Z,29.80
2019-06-26T11:58:22.082Z,30.00
2019-06-26T11:59:28.282Z,30.50
2019-06-26T12:00:33.735Z,30.90
2019-06-26T12:01:39.645Z,30.90
2019-06-26T12:02:45.877Z,30.60
2019-06-26T12:03:53.259Z,30.40
2019-06-26T12:04:58.436Z,30.00
2019-06-26T12:06:17.986Z,29.70
2019-06-26T12:07:11.656Z,29.50
2019-06-26T12:08:18.636Z,29.40
2019-06-26T12:09:24.722Z,29.40
2019-06-26T12:10:30.654Z,28.20
2019-06-26T12:11:36.257Z,28.40
2019-06-26T12:12:42.698Z,28.50
2019-06-26T12:13:48.595Z,28.60
2019-06-26T12:14:54.766Z,28.90
2019-06-26T12:15:59.900Z,29.30
2019-06-26T12:17:06.050Z,29.20
2019-06-26T12:18:11.236Z,29.10
2019-06-26T12:19:19.859Z,28.90
2019-06-26T12:20:24.292Z,29.00
2019-06-26T12:21:30.272Z,29.00
2019-06-26T12:22:36.104Z,29.20
2019-06-26T12:23:42.982Z,29.50
2019-06-26T12:24:48.489Z,30.10
2019-06-26T12:25:54.724Z,30.00
2019-06-26T12:27:00.525Z,30.00
2019-06-26T12:28:06.966Z,29.90
2019-06-26T12:29:12.862Z,30.10
2019-06-26T12:30:20.231Z,30.40
2019-06-26T12:31:25.979Z,30.60
2019-06-26T12:32:41.494Z,30.80
2019-06-26T12:33:41.526Z,31.30
2019-06-26T12:34:47.422Z,30.40
2019-06-26T12:35:52.972Z,30.60
2019-06-26T12:36:59.299Z,30.40
2019-06-26T12:38:05.106Z,30.50
2019-06-26T12:39:11.097Z,30.30
2019-06-26T12:40:17.249Z,30.00
2019-06-26T12:41:23.251Z,30.00
2019-06-26T12:42:29.133Z,29.90
2019-06-26T12:43:35.347Z,30.30
2019-06-26T12:44:41.046Z,30.00
2019-06-26T12:45:47.374Z,30.30
2019-06-26T12:46:52.975Z,30.10
2019-06-26T12:47:59.768Z,30.80
2019-06-26T12:49:04.943Z,30.00
2019-06-26T12:50:13.018Z,29.90
2019-06-26T12:51:18.081Z,30.00
2019-06-26T12:52:23.886Z,30.00
2019-06-26T12:53:31.189Z,30.40
2019-06-26T12:54:37.416Z,30.50
2019-06-26T12:55:42.544Z,30.60
2019-06-26T12:56:49.044Z,30.40
2019-06-26T12:58:11.373Z,30.20
2019-06-26T12:59:03.143Z,30.90
2019-06-26T13:00:08.722Z,30.60
2019-06-26T13:01:15.301Z,30.00
2019-06-26T13:02:20.571Z,30.00
2019-06-26T13:03:26.423Z,30.20
2019-06-26T13:04:31.875Z,31.20
2019-06-26T13:05:38.121Z,30.40
2019-06-26T13:06:43.694Z,30.70
2019-06-26T13:07:49.949Z,30.40
2019-06-26T13:08:55.877Z,30.40
2019-06-26T13:10:02.209Z,30.60
2019-06-26T13:11:07.822Z,30.50
2019-06-26T13:12:14.579Z,30.40
2019-06-26T13:13:19.720Z,30.50
2019-06-26T13:14:26.202Z,30.90
2019-06-26T13:15:31.348Z,30.80
2019-06-26T13:16:37.743Z,31.90
2019-06-26T13:17:42.986Z,31.40
2019-06-26T13:18:49.233Z,31.40
2019-06-26T13:19:54.559Z,31.60
2019-06-26T13:21:04.728Z,31.20
2019-06-26T13:22:07.909Z,30.70
2019-06-26T13:23:15.010Z,30.70
2019-06-26T13:24:20.475Z,30.40
2019-06-26T13:25:26.701Z,30.10
2019-06-26T13:26:32.105Z,30.00
2019-06-26T13:27:38.096Z,29.90
2019-06-26T13:28:43.576Z,29.70
2019-06-26T13:29:49.886Z,29.90
2019-06-26T13:30:55.037Z,30.00
2019-06-26T13:32:01.224Z,30.00
2019-06-26T13:33:06.600Z,29.60
2019-06-26T13:34:12.628Z,29.40
2019-06-26T13:35:17.856Z,29.40
2019-06-26T13:36:24.381Z,29.40
2019-06-26T13:37:29.581Z,29.40
2019-06-26T13:38:35.772Z,29.90
2019-06-26T13:39:41.418Z,29.20
2019-06-26T13:40:47.403Z,29.30
2019-06-26T13:41:52.900Z,29.40
2019-06-26T13:42:59.451Z,29.00
2019-06-26T13:44:05.025Z,29.80
2019-06-26T13:45:11.711Z,29.30
2019-06-26T13:46:17.246Z,29.70
2019-06-26T13:47:23.353Z,29.40
2019-06-26T13:48:28.527Z,29.10
2019-06-26T13:49:34.842Z,29.50
2019-06-26T13:50:40.521Z,29.80
2019-06-26T13:51:46.632Z,29.50
2019-06-26T13:52:52.498Z,29.50
2019-06-26T13:54:00.202Z,29.50
2019-06-26T13:55:05.964Z,30.00
2019-06-26T13:56:12.862Z,29.20
2019-06-26T13:57:18.599Z,29.60
2019-06-26T13:58:25.661Z,29.90
2019-06-26T13:59:31.817Z,29.70
2019-06-26T14:00:38.708Z,29.80
2019-06-26T14:01:44.746Z,30.00
2019-06-26T14:02:51.266Z,30.00
2019-06-26T14:03:56.412Z,29.90
2019-06-26T14:05:02.733Z,29.80
2019-06-26T14:06:07.857Z,30.20
2019-06-26T14:07:14.489Z,30.00
2019-06-26T14:08:20.250Z,30.00
2019-06-26T14:09:27.155Z,30.00
2019-06-26T14:10:32.677Z,29.60